sensor_id;sensor_type;location;lat;lon;timestamp;pressure;altitude;pressure_sealevel;temperature;humidity
73600;BME280;61877;48.246;9.220;2022-08-03T00:01:29;94332.56;;;15.47;79.30
73600;BME280;61877;48.246;9.220;2022-08-03T00:03:55;94331.38;;;15.44;79.51
73600;BME280;61877;48.246;9.220;2022-08-03T00:06:22;94323.03;;;15.34;80.12
73600;BME280;61877;48.246;9.220;2022-08-03T00:08:47;94321.84;;;15.31;80.21
73600;BME280;61877;48.246;9.220;2022-08-03T00:11:12;94326.34;;;15.24;80.60
73600;BME280;61877;48.246;9.220;2022-08-03T00:13:38;94324.19;;;15.33;79.85
73600;BME280;61877;48.246;9.220;2022-08-03T00:16:04;94323.34;;;15.29;80.10
73600;BME280;61877;48.246;9.220;2022-08-03T00:18:29;94325.81;;;15.15;80.76
73600;BME280;61877;48.246;9.220;2022-08-03T00:20:55;94316.09;;;15.10;81.00
73600;BME280;61877;48.246;9.220;2022-08-03T00:23:24;94323.03;;;15.11;80.93
73600;BME280;61877;48.246;9.220;2022-08-03T00:25:50;94310.69;;;15.10;80.29
73600;BME280;61877;48.246;9.220;2022-08-03T00:28:15;94318.78;;;15.10;80.34
73600;BME280;61877;48.246;9.220;2022-08-03T00:30:41;94308.22;;;15.02;80.33
73600;BME280;61877;48.246;9.220;2022-08-03T00:33:06;94316.47;;;14.90;81.01
73600;BME280;61877;48.246;9.220;2022-08-03T00:35:32;94316.03;;;14.88;81.17
73600;BME280;61877;48.246;9.220;2022-08-03T00:37:58;94315.91;;;14.81;81.49
73600;BME280;61877;48.246;9.220;2022-08-03T00:40:24;94312.50;;;14.84;81.41
73600;BME280;61877;48.246;9.220;2022-08-03T00:42:51;94312.09;;;14.82;81.64
73600;BME280;61877;48.246;9.220;2022-08-03T00:45:18;94313.78;;;14.90;80.72
73600;BME280;61877;48.246;9.220;2022-08-03T00:47:43;94311.66;;;14.80;80.77
73600;BME280;61877;48.246;9.220;2022-08-03T00:50:09;94311.22;;;14.78;81.54
73600;BME280;61877;48.246;9.220;2022-08-03T00:52:35;94317.63;;;14.70;81.64
73600;BME280;61877;48.246;9.220;2022-08-03T00:55:00;94316.09;;;14.69;81.74
73600;BME280;61877;48.246;9.220;2022-08-03T00:57:29;94311.72;;;14.64;81.89
73600;BME280;61877;48.246;9.220;2022-08-03T00:59:55;94314.38;;;14.61;82.02
73600;BME280;61877;48.246;9.220;2022-08-03T01:02:21;94308.84;;;14.54;82.20
73600;BME280;61877;48.246;9.220;2022-08-03T01:04:47;94306.97;;;14.58;81.77
73600;BME280;61877;48.246;9.220;2022-08-03T01:07:20;94305.72;;;14.52;81.86
73600;BME280;61877;48.246;9.220;2022-08-03T01:09:57;94305.56;;;14.45;81.97
73600;BME280;61877;48.246;9.220;2022-08-03T01:12:31;94308.84;;;14.54;81.58
73600;BME280;61877;48.246;9.220;2022-08-03T01:15:03;94312.44;;;14.61;81.31
73600;BME280;61877;48.246;9.220;2022-08-03T01:17:39;94305.44;;;14.57;81.32
73600;BME280;61877;48.246;9.220;2022-08-03T01:20:31;94300.00;;;14.38;82.00
73600;BME280;61877;48.246;9.220;2022-08-03T01:23:13;94298.03;;;14.35;82.34
73600;BME280;61877;48.246;9.220;2022-08-03T01:25:58;94291.38;;;14.29;82.44
73600;BME280;61877;48.246;9.220;2022-08-03T01:28:42;94295.88;;;14.24;82.46
73600;BME280;61877;48.246;9.220;2022-08-03T01:31:16;94296.16;;;14.19;82.86
73600;BME280;61877;48.246;9.220;2022-08-03T01:33:46;94289.47;;;14.13;82.97
73600;BME280;61877;48.246;9.220;2022-08-03T01:36:17;94289.41;;;14.10;83.22
73600;BME280;61877;48.246;9.220;2022-08-03T01:38:46;94291.66;;;14.08;83.45
73600;BME280;61877;48.246;9.220;2022-08-03T01:41:17;94284.66;;;14.03;83.52
73600;BME280;61877;48.246;9.220;2022-08-03T01:43:47;94281.94;;;14.03;83.01
73600;BME280;61877;48.246;9.220;2022-08-03T01:46:15;94282.03;;;14.07;82.58
73600;BME280;61877;48.246;9.220;2022-08-03T01:48:42;94285.06;;;14.05;82.50
73600;BME280;61877;48.246;9.220;2022-08-03T01:51:09;94287.13;;;14.12;82.08
73600;BME280;61877;48.246;9.220;2022-08-03T01:53:36;94280.94;;;14.11;82.17
73600;BME280;61877;48.246;9.220;2022-08-03T01:56:04;94279.59;;;14.02;82.12
73600;BME280;61877;48.246;9.220;2022-08-03T01:58:31;94279.38;;;13.91;82.84
73600;BME280;61877;48.246;9.220;2022-08-03T02:00:59;94279.72;;;13.90;82.71
73600;BME280;61877;48.246;9.220;2022-08-03T02:03:28;94280.78;;;13.85;83.29
73600;BME280;61877;48.246;9.220;2022-08-03T02:05:56;94274.41;;;13.93;82.58
73600;BME280;61877;48.246;9.220;2022-08-03T02:08:24;94277.53;;;13.95;82.37
73600;BME280;61877;48.246;9.220;2022-08-03T02:10:50;94280.44;;;13.87;82.17
73600;BME280;61877;48.246;9.220;2022-08-03T02:13:18;94278.63;;;13.75;82.41
73600;BME280;61877;48.246;9.220;2022-08-03T02:15:45;94283.69;;;13.77;82.74
73600;BME280;61877;48.246;9.220;2022-08-03T02:18:12;94283.44;;;13.66;83.25
73600;BME280;61877;48.246;9.220;2022-08-03T02:20:42;94275.69;;;13.65;83.42
73600;BME280;61877;48.246;9.220;2022-08-03T02:23:08;94269.09;;;13.62;83.85
73600;BME280;61877;48.246;9.220;2022-08-03T02:25:38;94272.91;;;13.61;83.75
73600;BME280;61877;48.246;9.220;2022-08-03T02:28:09;94269.28;;;13.69;83.26
73600;BME280;61877;48.246;9.220;2022-08-03T02:30:37;94273.59;;;13.74;82.96
73600;BME280;61877;48.246;9.220;2022-08-03T02:33:04;94276.06;;;13.63;83.10
73600;BME280;61877;48.246;9.220;2022-08-03T02:35:31;94277.91;;;13.59;83.15
73600;BME280;61877;48.246;9.220;2022-08-03T02:38:02;94272.34;;;13.52;83.75
73600;BME280;61877;48.246;9.220;2022-08-03T02:40:29;94270.44;;;13.53;83.85
73600;BME280;61877;48.246;9.220;2022-08-03T02:42:58;94275.13;;;13.56;83.08
73600;BME280;61877;48.246;9.220;2022-08-03T02:45:26;94270.78;;;13.51;83.62
73600;BME280;61877;48.246;9.220;2022-08-03T02:47:55;94269.66;;;13.52;83.54
73600;BME280;61877;48.246;9.220;2022-08-03T02:50:23;94272.44;;;13.40;83.84
73600;BME280;61877;48.246;9.220;2022-08-03T02:52:50;94264.19;;;13.49;83.09
73600;BME280;61877;48.246;9.220;2022-08-03T02:55:18;94263.91;;;13.38;83.39
73600;BME280;61877;48.246;9.220;2022-08-03T02:57:45;94263.59;;;13.24;83.81
73600;BME280;61877;48.246;9.220;2022-08-03T03:00:12;94259.75;;;13.25;84.36
73600;BME280;61877;48.246;9.220;2022-08-03T03:02:39;94258.22;;;13.24;84.17
73600;BME280;61877;48.246;9.220;2022-08-03T03:05:07;94272.53;;;13.28;84.21
73600;BME280;61877;48.246;9.220;2022-08-03T03:07:34;94264.38;;;13.25;84.22
73600;BME280;61877;48.246;9.220;2022-08-03T03:10:00;94268.38;;;13.31;84.23
73600;BME280;61877;48.246;9.220;2022-08-03T03:12:28;94265.16;;;13.25;84.33
73600;BME280;61877;48.246;9.220;2022-08-03T03:14:55;94259.06;;;13.28;83.91
73600;BME280;61877;48.246;9.220;2022-08-03T03:17:21;94258.56;;;13.23;83.61
73600;BME280;61877;48.246;9.220;2022-08-03T03:19:48;94260.72;;;13.17;83.80
73600;BME280;61877;48.246;9.220;2022-08-03T03:22:16;94270.22;;;13.11;84.00
73600;BME280;61877;48.246;9.220;2022-08-03T03:24:41;94269.34;;;13.07;84.16
73600;BME280;61877;48.246;9.220;2022-08-03T03:27:08;94258.56;;;13.07;84.49
73600;BME280;61877;48.246;9.220;2022-08-03T03:29:35;94259.63;;;13.03;84.94
73600;BME280;61877;48.246;9.220;2022-08-03T03:32:01;94261.75;;;12.97;84.82
73600;BME280;61877;48.246;9.220;2022-08-03T03:34:28;94254.91;;;12.99;84.36
73600;BME280;61877;48.246;9.220;2022-08-03T03:36:54;94253.44;;;13.18;83.80
73600;BME280;61877;48.246;9.220;2022-08-03T03:39:19;94257.94;;;13.14;83.77
73600;BME280;61877;48.246;9.220;2022-08-03T03:41:45;94263.94;;;13.07;84.17
73600;BME280;61877;48.246;9.220;2022-08-03T03:44:11;94261.25;;;13.07;83.96
73600;BME280;61877;48.246;9.220;2022-08-03T03:46:39;94263.16;;;13.07;84.10
73600;BME280;61877;48.246;9.220;2022-08-03T03:49:04;94268.28;;;12.96;84.82
73600;BME280;61877;48.246;9.220;2022-08-03T03:51:30;94267.00;;;13.06;84.32
73600;BME280;61877;48.246;9.220;2022-08-03T03:53:56;94265.28;;;13.13;83.81
73600;BME280;61877;48.246;9.220;2022-08-03T03:56:22;94264.22;;;13.02;84.39
73600;BME280;61877;48.246;9.220;2022-08-03T03:58:50;94264.66;;;13.04;84.51
73600;BME280;61877;48.246;9.220;2022-08-03T04:01:15;94261.97;;;13.04;83.73
73600;BME280;61877;48.246;9.220;2022-08-03T04:03:42;94269.59;;;13.02;83.68
73600;BME280;61877;48.246;9.220;2022-08-03T04:06:08;94261.50;;;13.02;83.76
73600;BME280;61877;48.246;9.220;2022-08-03T04:08:33;94265.94;;;12.94;84.22
73600;BME280;61877;48.246;9.220;2022-08-03T04:11:06;94260.63;;;12.98;84.31
73600;BME280;61877;48.246;9.220;2022-08-03T04:13:36;94265.13;;;12.94;84.79
73600;BME280;61877;48.246;9.220;2022-08-03T04:16:03;94267.03;;;12.93;85.00
73600;BME280;61877;48.246;9.220;2022-08-03T04:18:30;94272.88;;;12.95;85.09
73600;BME280;61877;48.246;9.220;2022-08-03T04:21:01;94267.22;;;13.00;84.60
73600;BME280;61877;48.246;9.220;2022-08-03T04:23:29;94269.50;;;13.14;84.07
73600;BME280;61877;48.246;9.220;2022-08-03T04:25:56;94274.03;;;13.10;83.87
73600;BME280;61877;48.246;9.220;2022-08-03T04:28:23;94268.97;;;13.09;84.23
73600;BME280;61877;48.246;9.220;2022-08-03T04:30:50;94273.88;;;13.03;84.67
73600;BME280;61877;48.246;9.220;2022-08-03T04:33:18;94270.91;;;13.08;84.33
73600;BME280;61877;48.246;9.220;2022-08-03T04:35:45;94271.94;;;13.04;84.44
73600;BME280;61877;48.246;9.220;2022-08-03T04:38:14;94272.88;;;12.95;84.43
73600;BME280;61877;48.246;9.220;2022-08-03T04:40:42;94277.72;;;12.90;84.84
73600;BME280;61877;48.246;9.220;2022-08-03T04:43:09;94279.66;;;12.89;84.89
73600;BME280;61877;48.246;9.220;2022-08-03T04:45:36;94286.59;;;12.90;84.78
73600;BME280;61877;48.246;9.220;2022-08-03T04:48:03;94281.03;;;12.99;84.74
73600;BME280;61877;48.246;9.220;2022-08-03T04:50:29;94284.88;;;13.14;84.22
73600;BME280;61877;48.246;9.220;2022-08-03T04:52:55;94284.38;;;13.24;83.49
73600;BME280;61877;48.246;9.220;2022-08-03T04:55:26;94282.38;;;13.36;83.05
73600;BME280;61877;48.246;9.220;2022-08-03T04:57:51;94282.69;;;13.50;82.62
73600;BME280;61877;48.246;9.220;2022-08-03T05:00:17;94287.00;;;13.70;82.09
73600;BME280;61877;48.246;9.220;2022-08-03T05:02:43;94290.44;;;13.86;82.00
73600;BME280;61877;48.246;9.220;2022-08-03T05:05:08;94289.25;;;14.03;81.21
73600;BME280;61877;48.246;9.220;2022-08-03T05:07:34;94291.25;;;14.06;81.52
73600;BME280;61877;48.246;9.220;2022-08-03T05:09:59;94294.69;;;14.22;81.27
73600;BME280;61877;48.246;9.220;2022-08-03T05:12:26;94288.03;;;14.35;80.65
73600;BME280;61877;48.246;9.220;2022-08-03T05:14:51;94292.28;;;14.36;79.95
73600;BME280;61877;48.246;9.220;2022-08-03T05:17:17;94290.41;;;14.59;79.55
73600;BME280;61877;48.246;9.220;2022-08-03T05:19:42;94290.56;;;14.66;78.77
73600;BME280;61877;48.246;9.220;2022-08-03T05:22:07;94288.50;;;14.79;78.67
73600;BME280;61877;48.246;9.220;2022-08-03T05:24:33;94288.72;;;14.93;78.26
73600;BME280;61877;48.246;9.220;2022-08-03T05:26:58;94292.88;;;15.09;78.10
73600;BME280;61877;48.246;9.220;2022-08-03T05:29:25;94291.69;;;15.29;77.39
73600;BME280;61877;48.246;9.220;2022-08-03T05:31:50;94299.72;;;15.45;77.33
73600;BME280;61877;48.246;9.220;2022-08-03T05:34:16;94289.78;;;15.52;76.98
73600;BME280;61877;48.246;9.220;2022-08-03T05:36:41;94288.06;;;15.67;76.59
73600;BME280;61877;48.246;9.220;2022-08-03T05:39:07;94293.47;;;15.67;76.22
73600;BME280;61877;48.246;9.220;2022-08-03T05:41:32;94291.19;;;15.95;75.94
73600;BME280;61877;48.246;9.220;2022-08-03T05:43:57;94293.88;;;15.95;75.50
73600;BME280;61877;48.246;9.220;2022-08-03T05:46:24;94288.94;;;16.01;76.29
73600;BME280;61877;48.246;9.220;2022-08-03T05:48:49;94288.78;;;16.16;76.12
73600;BME280;61877;48.246;9.220;2022-08-03T05:51:15;94289.47;;;16.39;75.66
73600;BME280;61877;48.246;9.220;2022-08-03T05:53:41;94287.25;;;16.48;74.96
73600;BME280;61877;48.246;9.220;2022-08-03T05:56:06;94294.41;;;16.63;74.17
73600;BME280;61877;48.246;9.220;2022-08-03T05:58:32;94300.25;;;16.65;73.86
73600;BME280;61877;48.246;9.220;2022-08-03T06:00:57;94289.25;;;16.88;73.70
73600;BME280;61877;48.246;9.220;2022-08-03T06:03:24;94288.44;;;16.84;74.12
73600;BME280;61877;48.246;9.220;2022-08-03T06:05:49;94290.16;;;16.99;74.26
73600;BME280;61877;48.246;9.220;2022-08-03T06:08:15;94288.53;;;16.95;74.10
73600;BME280;61877;48.246;9.220;2022-08-03T06:10:40;94287.66;;;17.20;74.03
73600;BME280;61877;48.246;9.220;2022-08-03T06:13:06;94282.44;;;17.45;73.97
73600;BME280;61877;48.246;9.220;2022-08-03T06:15:31;94293.03;;;17.57;72.73
73600;BME280;61877;48.246;9.220;2022-08-03T06:17:56;94288.44;;;17.64;72.91
73600;BME280;61877;48.246;9.220;2022-08-03T06:20:23;94280.69;;;17.66;72.57
73600;BME280;61877;48.246;9.220;2022-08-03T06:22:49;94296.41;;;17.94;72.33
73600;BME280;61877;48.246;9.220;2022-08-03T06:25:14;94288.69;;;18.03;72.55
73600;BME280;61877;48.246;9.220;2022-08-03T06:27:40;94296.16;;;18.17;71.00
73600;BME280;61877;48.246;9.220;2022-08-03T06:30:07;94285.72;;;18.26;71.10
73600;BME280;61877;48.246;9.220;2022-08-03T06:32:33;94284.28;;;18.42;70.22
73600;BME280;61877;48.246;9.220;2022-08-03T06:34:58;94279.72;;;18.67;69.82
73600;BME280;61877;48.246;9.220;2022-08-03T06:37:25;94290.69;;;18.88;69.01
73600;BME280;61877;48.246;9.220;2022-08-03T06:39:51;94294.19;;;18.92;69.75
73600;BME280;61877;48.246;9.220;2022-08-03T06:42:16;94291.50;;;19.13;68.70
73600;BME280;61877;48.246;9.220;2022-08-03T06:44:42;94290.03;;;19.41;68.47
73600;BME280;61877;48.246;9.220;2022-08-03T06:47:07;94291.19;;;19.40;67.85
73600;BME280;61877;48.246;9.220;2022-08-03T06:49:32;94295.47;;;19.48;67.93
73600;BME280;61877;48.246;9.220;2022-08-03T06:51:58;94290.44;;;19.71;68.07
73600;BME280;61877;48.246;9.220;2022-08-03T06:54:24;94286.91;;;19.67;67.79
73600;BME280;61877;48.246;9.220;2022-08-03T06:56:50;94288.47;;;19.89;67.49
73600;BME280;61877;48.246;9.220;2022-08-03T06:59:15;94287.66;;;20.13;67.28
73600;BME280;61877;48.246;9.220;2022-08-03T07:01:41;94280.59;;;20.40;66.51
73600;BME280;61877;48.246;9.220;2022-08-03T07:04:06;94284.81;;;20.62;66.95
73600;BME280;61877;48.246;9.220;2022-08-03T07:06:31;94284.31;;;20.85;66.42
73600;BME280;61877;48.246;9.220;2022-08-03T07:08:57;94277.22;;;21.08;64.20
73600;BME280;61877;48.246;9.220;2022-08-03T07:11:24;94282.13;;;21.34;62.70
73600;BME280;61877;48.246;9.220;2022-08-03T07:13:49;94286.69;;;21.51;62.74
73600;BME280;61877;48.246;9.220;2022-08-03T07:16:15;94282.25;;;21.71;62.13
73600;BME280;61877;48.246;9.220;2022-08-03T07:18:40;94282.09;;;21.93;62.28
73600;BME280;61877;48.246;9.220;2022-08-03T07:21:05;94286.56;;;22.17;62.30
73600;BME280;61877;48.246;9.220;2022-08-03T07:23:31;94275.44;;;22.34;62.49
73600;BME280;61877;48.246;9.220;2022-08-03T07:25:56;94283.09;;;22.50;61.94
73600;BME280;61877;48.246;9.220;2022-08-03T07:28:23;94279.81;;;22.65;61.62
73600;BME280;61877;48.246;9.220;2022-08-03T07:30:48;94282.75;;;22.81;60.97
73600;BME280;61877;48.246;9.220;2022-08-03T07:33:14;94287.81;;;23.13;57.97
73600;BME280;61877;48.246;9.220;2022-08-03T07:35:39;94289.09;;;23.35;55.73
73600;BME280;61877;48.246;9.220;2022-08-03T07:38:05;94290.97;;;23.65;56.61
73600;BME280;61877;48.246;9.220;2022-08-03T07:40:30;94289.16;;;23.81;54.97
73600;BME280;61877;48.246;9.220;2022-08-03T07:42:55;94287.28;;;24.01;53.37
73600;BME280;61877;48.246;9.220;2022-08-03T07:45:22;94292.00;;;24.24;50.98
73600;BME280;61877;48.246;9.220;2022-08-03T07:47:47;94287.03;;;24.39;49.56
73600;BME280;61877;48.246;9.220;2022-08-03T07:50:13;94286.50;;;24.47;48.76
73600;BME280;61877;48.246;9.220;2022-08-03T07:52:38;94287.25;;;24.48;49.79
73600;BME280;61877;48.246;9.220;2022-08-03T07:55:04;94285.09;;;24.59;48.53
73600;BME280;61877;48.246;9.220;2022-08-03T07:57:30;94283.66;;;24.74;47.65
73600;BME280;61877;48.246;9.220;2022-08-03T07:59:56;94281.94;;;24.99;47.81
73600;BME280;61877;48.246;9.220;2022-08-03T08:02:22;94276.78;;;25.21;46.32
73600;BME280;61877;48.246;9.220;2022-08-03T08:04:48;94273.88;;;25.28;45.99
73600;BME280;61877;48.246;9.220;2022-08-03T08:07:13;94283.69;;;25.09;47.11
73600;BME280;61877;48.246;9.220;2022-08-03T08:09:39;94280.09;;;25.32;44.46
73600;BME280;61877;48.246;9.220;2022-08-03T08:12:05;94278.75;;;25.56;45.49
73600;BME280;61877;48.246;9.220;2022-08-03T08:14:30;94272.69;;;25.81;43.40
73600;BME280;61877;48.246;9.220;2022-08-03T08:16:55;94274.66;;;25.96;42.93
73600;BME280;61877;48.246;9.220;2022-08-03T08:19:22;94274.66;;;25.96;42.92
73600;BME280;61877;48.246;9.220;2022-08-03T08:21:49;94277.25;;;26.19;45.01
73600;BME280;61877;48.246;9.220;2022-08-03T08:24:14;94278.97;;;26.29;43.85
73600;BME280;61877;48.246;9.220;2022-08-03T08:26:39;94278.00;;;26.36;42.27
73600;BME280;61877;48.246;9.220;2022-08-03T08:29:05;94282.75;;;26.64;42.89
73600;BME280;61877;48.246;9.220;2022-08-03T08:31:30;94285.66;;;26.44;40.72
73600;BME280;61877;48.246;9.220;2022-08-03T08:33:56;94274.13;;;26.49;40.63
73600;BME280;61877;48.246;9.220;2022-08-03T08:36:22;94281.28;;;26.76;40.31
73600;BME280;61877;48.246;9.220;2022-08-03T08:38:48;94273.13;;;26.72;38.90
73600;BME280;61877;48.246;9.220;2022-08-03T08:41:14;94278.75;;;26.52;40.14
73600;BME280;61877;48.246;9.220;2022-08-03T08:43:40;94279.34;;;26.89;39.73
73600;BME280;61877;48.246;9.220;2022-08-03T08:46:06;94277.59;;;26.95;40.04
73600;BME280;61877;48.246;9.220;2022-08-03T08:48:32;94275.22;;;27.22;39.25
73600;BME280;61877;48.246;9.220;2022-08-03T08:51:00;94271.38;;;27.19;36.91
73600;BME280;61877;48.246;9.220;2022-08-03T08:53:27;94272.03;;;27.11;39.35
73600;BME280;61877;48.246;9.220;2022-08-03T08:55:56;94273.31;;;27.06;40.27
73600;BME280;61877;48.246;9.220;2022-08-03T08:58:23;94269.72;;;27.22;38.86
73600;BME280;61877;48.246;9.220;2022-08-03T09:00:51;94276.63;;;27.67;38.57
73600;BME280;61877;48.246;9.220;2022-08-03T09:03:17;94280.72;;;28.01;38.42
73600;BME280;61877;48.246;9.220;2022-08-03T09:05:42;94276.13;;;28.19;37.14
73600;BME280;61877;48.246;9.220;2022-08-03T09:08:08;94277.41;;;28.52;38.34
73600;BME280;61877;48.246;9.220;2022-08-03T09:10:35;94275.91;;;28.26;36.66
73600;BME280;61877;48.246;9.220;2022-08-03T09:13:01;94283.63;;;28.31;36.54
73600;BME280;61877;48.246;9.220;2022-08-03T09:15:28;94276.88;;;28.32;36.83
73600;BME280;61877;48.246;9.220;2022-08-03T09:17:55;94270.03;;;28.49;35.43
73600;BME280;61877;48.246;9.220;2022-08-03T09:20:22;94276.47;;;28.68;35.20
73600;BME280;61877;48.246;9.220;2022-08-03T09:22:56;94273.47;;;28.96;36.67
73600;BME280;61877;48.246;9.220;2022-08-03T09:25:30;94277.28;;;29.12;35.22
73600;BME280;61877;48.246;9.220;2022-08-03T09:28:07;94274.00;;;29.56;34.95
73600;BME280;61877;48.246;9.220;2022-08-03T09:30:33;94278.31;;;29.88;32.58
73600;BME280;61877;48.246;9.220;2022-08-03T09:32:59;94272.81;;;29.36;33.28
73600;BME280;61877;48.246;9.220;2022-08-03T09:35:26;94281.66;;;29.22;33.20
73600;BME280;61877;48.246;9.220;2022-08-03T09:38:08;94274.63;;;29.30;34.07
73600;BME280;61877;48.246;9.220;2022-08-03T09:40:33;94275.28;;;29.64;32.03
73600;BME280;61877;48.246;9.220;2022-08-03T09:42:59;94280.16;;;29.30;32.76
73600;BME280;61877;48.246;9.220;2022-08-03T09:45:26;94276.09;;;29.74;33.97
73600;BME280;61877;48.246;9.220;2022-08-03T09:47:52;94277.84;;;29.59;33.03
73600;BME280;61877;48.246;9.220;2022-08-03T09:50:18;94277.03;;;29.80;32.43
73600;BME280;61877;48.246;9.220;2022-08-03T09:52:43;94274.06;;;30.05;32.05
73600;BME280;61877;48.246;9.220;2022-08-03T09:55:10;94275.41;;;30.49;29.95
73600;BME280;61877;48.246;9.220;2022-08-03T09:57:36;94268.94;;;30.43;29.92
73600;BME280;61877;48.246;9.220;2022-08-03T10:00:06;94268.38;;;30.84;29.39
73600;BME280;61877;48.246;9.220;2022-08-03T10:02:35;94272.03;;;30.72;30.11
73600;BME280;61877;48.246;9.220;2022-08-03T10:05:00;94266.63;;;30.33;30.04
73600;BME280;61877;48.246;9.220;2022-08-03T10:07:26;94262.31;;;30.50;31.45
73600;BME280;61877;48.246;9.220;2022-08-03T10:09:56;94268.69;;;30.95;31.99
73600;BME280;61877;48.246;9.220;2022-08-03T10:12:22;94269.91;;;31.03;31.00
73600;BME280;61877;48.246;9.220;2022-08-03T10:14:48;94268.78;;;31.28;31.09
73600;BME280;61877;48.246;9.220;2022-08-03T10:17:13;94261.47;;;31.67;29.84
73600;BME280;61877;48.246;9.220;2022-08-03T10:19:40;94255.06;;;31.42;27.91
73600;BME280;61877;48.246;9.220;2022-08-03T10:22:10;94257.53;;;31.91;28.30
73600;BME280;61877;48.246;9.220;2022-08-03T10:24:38;94255.00;;;31.61;28.07
73600;BME280;61877;48.246;9.220;2022-08-03T10:27:10;94253.84;;;31.25;28.50
73600;BME280;61877;48.246;9.220;2022-08-03T10:29:38;94254.59;;;31.44;28.89
73600;BME280;61877;48.246;9.220;2022-08-03T10:32:09;94260.66;;;32.17;28.91
73600;BME280;61877;48.246;9.220;2022-08-03T10:34:41;94250.19;;;31.70;27.55
73600;BME280;61877;48.246;9.220;2022-08-03T10:37:09;94254.44;;;32.22;28.83
73600;BME280;61877;48.246;9.220;2022-08-03T10:39:35;94255.84;;;32.50;28.18
73600;BME280;61877;48.246;9.220;2022-08-03T10:42:01;94250.50;;;32.61;26.75
73600;BME280;61877;48.246;9.220;2022-08-03T10:44:32;94253.09;;;31.76;28.62
73600;BME280;61877;48.246;9.220;2022-08-03T10:47:01;94260.84;;;31.63;27.75
73600;BME280;61877;48.246;9.220;2022-08-03T10:49:27;94257.88;;;32.40;28.80
73600;BME280;61877;48.246;9.220;2022-08-03T10:51:55;94254.34;;;32.07;29.80
73600;BME280;61877;48.246;9.220;2022-08-03T10:54:37;94250.59;;;32.90;25.38
73600;BME280;61877;48.246;9.220;2022-08-03T10:57:02;94261.25;;;32.68;27.95
73600;BME280;61877;48.246;9.220;2022-08-03T10:59:55;94244.41;;;32.71;25.32
73600;BME280;61877;48.246;9.220;2022-08-03T11:02:21;94245.38;;;33.21;26.92
73600;BME280;61877;48.246;9.220;2022-08-03T11:08:24;94243.78;;;32.53;27.96
73600;BME280;61877;48.246;9.220;2022-08-03T11:10:51;94242.06;;;32.70;26.84
73600;BME280;61877;48.246;9.220;2022-08-03T11:13:20;94251.78;;;32.98;26.26
73600;BME280;61877;48.246;9.220;2022-08-03T11:15:48;94244.50;;;32.77;27.33
73600;BME280;61877;48.246;9.220;2022-08-03T11:18:14;94241.38;;;32.60;26.75
73600;BME280;61877;48.246;9.220;2022-08-03T11:20:47;94240.84;;;33.38;28.20
73600;BME280;61877;48.246;9.220;2022-08-03T11:23:13;94232.59;;;33.87;25.67
73600;BME280;61877;48.246;9.220;2022-08-03T11:28:46;94221.84;;;33.80;25.16
73600;BME280;61877;48.246;9.220;2022-08-03T11:31:43;94222.81;;;33.63;24.15
73600;BME280;61877;48.246;9.220;2022-08-03T11:34:10;94223.59;;;34.47;25.64
73600;BME280;61877;48.246;9.220;2022-08-03T11:39:39;94227.53;;;34.61;24.99
73600;BME280;61877;48.246;9.220;2022-08-03T11:42:41;94226.44;;;33.98;24.34
73600;BME280;61877;48.246;9.220;2022-08-03T11:45:11;94238.28;;;32.82;25.65
73600;BME280;61877;48.246;9.220;2022-08-03T11:47:38;94239.47;;;32.90;25.55
73600;BME280;61877;48.246;9.220;2022-08-03T11:50:05;94228.69;;;33.21;25.25
73600;BME280;61877;48.246;9.220;2022-08-03T11:52:34;94220.41;;;33.70;25.80
73600;BME280;61877;48.246;9.220;2022-08-03T11:55:00;94216.22;;;34.30;23.68
73600;BME280;61877;48.246;9.220;2022-08-03T11:57:27;94214.66;;;34.43;23.04
73600;BME280;61877;48.246;9.220;2022-08-03T11:59:53;94212.25;;;34.51;23.44
73600;BME280;61877;48.246;9.220;2022-08-03T12:02:20;94213.91;;;34.43;24.35
73600;BME280;61877;48.246;9.220;2022-08-03T12:04:49;94209.91;;;34.09;25.63
73600;BME280;61877;48.246;9.220;2022-08-03T12:07:14;94206.91;;;34.73;25.12
73600;BME280;61877;48.246;9.220;2022-08-03T12:09:40;94207.91;;;34.70;24.35
73600;BME280;61877;48.246;9.220;2022-08-03T12:12:05;94206.50;;;35.00;23.98
73600;BME280;61877;48.246;9.220;2022-08-03T12:14:31;94199.41;;;34.59;24.06
73600;BME280;61877;48.246;9.220;2022-08-03T12:16:56;94204.41;;;34.95;25.31
73600;BME280;61877;48.246;9.220;2022-08-03T12:19:23;94207.66;;;35.39;22.73
73600;BME280;61877;48.246;9.220;2022-08-03T12:21:49;94197.91;;;34.83;22.98
73600;BME280;61877;48.246;9.220;2022-08-03T12:24:15;94202.06;;;35.39;24.43
73600;BME280;61877;48.246;9.220;2022-08-03T12:26:45;94206.44;;;35.20;23.82
73600;BME280;61877;48.246;9.220;2022-08-03T12:29:15;94209.88;;;34.64;25.25
73600;BME280;61877;48.246;9.220;2022-08-03T12:31:41;94208.28;;;35.03;23.98
73600;BME280;61877;48.246;9.220;2022-08-03T12:34:06;94209.44;;;35.17;22.66
73600;BME280;61877;48.246;9.220;2022-08-03T12:36:34;94206.38;;;34.69;22.76
73600;BME280;61877;48.246;9.220;2022-08-03T12:39:05;94199.31;;;34.73;24.21
73600;BME280;61877;48.246;9.220;2022-08-03T12:41:32;94202.84;;;35.40;22.98
73600;BME280;61877;48.246;9.220;2022-08-03T12:43:58;94195.38;;;35.31;21.34
73600;BME280;61877;48.246;9.220;2022-08-03T12:46:28;94198.44;;;34.87;22.09
73600;BME280;61877;48.246;9.220;2022-08-03T12:48:58;94197.28;;;34.94;22.80
73600;BME280;61877;48.246;9.220;2022-08-03T12:51:24;94192.69;;;34.71;23.10
73600;BME280;61877;48.246;9.220;2022-08-03T12:53:52;94182.22;;;34.86;23.14
73600;BME280;61877;48.246;9.220;2022-08-03T12:56:18;94190.06;;;35.33;21.94
73600;BME280;61877;48.246;9.220;2022-08-03T12:58:43;94186.72;;;35.29;23.88
73600;BME280;61877;48.246;9.220;2022-08-03T13:01:09;94185.97;;;35.03;22.81
73600;BME280;61877;48.246;9.220;2022-08-03T13:03:39;94189.91;;;34.71;24.09
73600;BME280;61877;48.246;9.220;2022-08-03T13:06:10;94188.03;;;35.59;23.63
73600;BME280;61877;48.246;9.220;2022-08-03T13:08:35;94188.13;;;36.07;22.68
73600;BME280;61877;48.246;9.220;2022-08-03T13:11:21;94191.81;;;36.29;20.56